Terminal Aerodrome Forecast
Issued by NWS Glasgow, MT

Home | Current Version | Previous Version | Text Only | Print | Product List | Glossary On
Versions: 1 2 3 4 5 6 7 8 9 10 11 12 13
000
FTUS45 KGGW 292320
TAFGGW
TAF
KGGW 292320Z 3000/3024 26011KT P6SM SCT070
     FM300400 10005KT P6SM SCT200
     FM301300 36004KT P6SM VCSH OVC040
     FM302100 28013KT P6SM -SHRA OVC050=

USA.gov is the U.S. government's official web portal to all federal, state and local government web resources and services.